createdAt,value
2019-05-16T00:01:20.893Z,100785.85
2019-05-16T00:03:52.182Z,100789.47
2019-05-16T00:06:23.278Z,100783.78
2019-05-16T00:08:54.429Z,100787.98
2019-05-16T00:11:25.560Z,100784.61
2019-05-16T00:13:57.843Z,100787.86
2019-05-16T00:16:29.194Z,100783.05
2019-05-16T00:19:00.307Z,100787.55
2019-05-16T00:21:31.493Z,100784.12
2019-05-16T00:24:03.658Z,100788.13
2019-05-16T00:26:34.813Z,100786.84
2019-05-16T00:29:07.884Z,100780.66
2019-05-16T00:31:38.818Z,100779.89
2019-05-16T00:34:10.212Z,100780.84
2019-05-16T00:36:41.319Z,100781.87
2019-05-16T00:39:12.513Z,100778.25
2019-05-16T00:41:43.616Z,100774.79
2019-05-16T00:44:14.697Z,100745.55
2019-05-16T00:46:45.993Z,100781.08
2019-05-16T00:49:18.689Z,100774.97
2019-05-16T00:51:50.013Z,100772.30
2019-05-16T00:54:21.373Z,100770.56
2019-05-16T00:56:52.557Z,100771.69
2019-05-16T00:59:23.589Z,100768.65
2019-05-16T01:01:54.822Z,100764.64
2019-05-16T01:04:28.690Z,100765.09
2019-05-16T01:07:01.837Z,100769.59
2019-05-16T01:09:32.611Z,100766.13
2019-05-16T01:12:03.904Z,100780.83
2019-05-16T01:14:35.012Z,100778.23
2019-05-16T01:17:08.475Z,100776.99
2019-05-16T01:19:39.013Z,100776.23
2019-05-16T01:22:10.232Z,100780.88
2019-05-16T01:24:41.622Z,100785.52
2019-05-16T01:27:12.957Z,100775.40
2019-05-16T01:29:44.246Z,100777.28
2019-05-16T01:32:15.391Z,100771.35
2019-05-16T01:34:48.321Z,100782.13
2019-05-16T01:37:19.551Z,100781.25
2019-05-16T01:39:50.749Z,100762.67
2019-05-16T01:42:21.905Z,100774.17
2019-05-16T01:44:53.180Z,100776.48
2019-05-16T01:47:24.305Z,100779.15
2019-05-16T01:49:55.501Z,100780.48
2019-05-16T01:52:28.900Z,100767.62
2019-05-16T01:54:59.549Z,100769.13
2019-05-16T01:57:30.857Z,100772.48
2019-05-16T02:00:01.979Z,100776.58
2019-05-16T02:02:33.125Z,100776.92
2019-05-16T02:05:05.606Z,100772.52
2019-05-16T02:07:38.701Z,100774.39
2019-05-16T02:10:10.440Z,100776.27
2019-05-16T02:12:41.694Z,100779.87
2019-05-16T02:15:12.880Z,100776.81
2019-05-16T02:17:44.142Z,100760.91
2019-05-16T02:20:17.813Z,100760.91
2019-05-16T02:22:48.375Z,100767.81
2019-05-16T02:25:20.439Z,100776.75
2019-05-16T02:27:51.559Z,100758.06
2019-05-16T02:30:22.785Z,100760.55
2019-05-16T02:32:54.018Z,100760.55
2019-05-16T02:35:25.254Z,100780.84
2019-05-16T02:37:56.522Z,100764.79
2019-05-16T02:40:31.023Z,100777.86
2019-05-16T02:43:01.461Z,100781.47
2019-05-16T02:45:33.322Z,100782.02
2019-05-16T02:48:04.599Z,100780.28
2019-05-16T02:50:35.893Z,100780.28
2019-05-16T02:53:07.189Z,100784.28
2019-05-16T02:55:40.848Z,100783.34
2019-05-16T02:58:11.620Z,100764.20
2019-05-16T03:00:44.594Z,100760.50
2019-05-16T03:03:15.787Z,100776.35
2019-05-16T03:05:46.972Z,100774.48
2019-05-16T03:08:20.971Z,100773.91
2019-05-16T03:10:52.397Z,100778.58
2019-05-16T03:13:23.593Z,100777.05
2019-05-16T03:15:54.877Z,100775.33
2019-05-16T03:18:26.077Z,100788.58
2019-05-16T03:21:00.380Z,100791.75
2019-05-16T03:23:30.927Z,100780.64
2019-05-16T03:26:02.440Z,100781.47
2019-05-16T03:28:33.790Z,100783.13
2019-05-16T03:31:06.111Z,100783.14
2019-05-16T03:33:43.632Z,100783.34
2019-05-16T03:36:14.966Z,100788.84
2019-05-16T03:38:43.577Z,100789.70
2019-05-16T03:41:14.645Z,100787.81
2019-05-16T03:43:45.825Z,100782.05
2019-05-16T03:46:16.948Z,100779.66
2019-05-16T03:48:51.544Z,100780.83
2019-05-16T03:51:21.799Z,100788.83
2019-05-16T03:53:53.103Z,100791.73
2019-05-16T03:56:24.231Z,100791.31
2019-05-16T03:58:55.427Z,100785.36
2019-05-16T04:01:27.537Z,100788.20
2019-05-16T04:04:01.590Z,100789.33
2019-05-16T04:06:31.529Z,100785.17
2019-05-16T04:09:05.176Z,100788.70
2019-05-16T04:11:36.650Z,100790.05
2019-05-16T04:14:10.658Z,100792.52
2019-05-16T04:16:41.368Z,100785.80
2019-05-16T04:19:13.090Z,100788.48
2019-05-16T04:21:44.225Z,100792.91
2019-05-16T04:24:15.300Z,100789.66
2019-05-16T04:26:46.404Z,100796.97
2019-05-16T04:29:20.445Z,100791.00
2019-05-16T04:31:51.019Z,100788.53
2019-05-16T04:34:22.330Z,100787.75
2019-05-16T04:36:53.621Z,100790.64
2019-05-16T04:39:24.730Z,100795.63
2019-05-16T04:41:55.827Z,100789.13
2019-05-16T04:44:27.021Z,100795.45
2019-05-16T04:47:01.117Z,100784.53
2019-05-16T04:49:31.927Z,100780.72
2019-05-16T04:52:03.422Z,100783.40
2019-05-16T04:54:34.661Z,100776.30
2019-05-16T04:57:05.793Z,100775.34
2019-05-16T04:59:37.033Z,100773.80
2019-05-16T05:02:08.218Z,100772.34
2019-05-16T05:04:41.377Z,100773.97
2019-05-16T05:07:12.359Z,100778.17
2019-05-16T05:09:43.634Z,100771.19
2019-05-16T05:12:14.859Z,100776.73
2019-05-16T05:14:46.127Z,100771.25
2019-05-16T05:17:17.152Z,100766.48
2019-05-16T05:19:50.687Z,100765.49
2019-05-16T05:22:20.987Z,100768.84
2019-05-16T05:24:52.156Z,100762.77
2019-05-16T05:27:24.340Z,100760.64
2019-05-16T05:29:55.448Z,100767.91
2019-05-16T05:32:26.646Z,100766.74
2019-05-16T05:34:59.850Z,100770.83
2019-05-16T05:37:30.497Z,100773.97
2019-05-16T05:40:01.930Z,100772.58
2019-05-16T05:42:33.168Z,100768.48
2019-05-16T05:45:05.577Z,100770.83
2019-05-16T05:47:36.689Z,100770.02
2019-05-16T05:50:07.957Z,100774.20
2019-05-16T05:52:41.056Z,100769.16
2019-05-16T05:55:11.862Z,100773.07
2019-05-16T05:57:42.991Z,100770.49
2019-05-16T06:00:14.458Z,100774.35
2019-05-16T06:02:46.505Z,100773.33
2019-05-16T06:05:19.957Z,100764.69
2019-05-16T06:07:50.980Z,100761.54
2019-05-16T06:10:22.495Z,100762.63
2019-05-16T06:12:53.719Z,100758.51
2019-05-16T06:15:25.212Z,100770.95
2019-05-16T06:17:56.466Z,100762.16
2019-05-16T06:20:27.585Z,100760.50
2019-05-16T06:23:00.017Z,100761.61
2019-05-16T06:25:31.703Z,100763.69
2019-05-16T06:28:03.298Z,100757.49
2019-05-16T06:30:34.499Z,100759.37
2019-05-16T06:33:05.740Z,100760.09
2019-05-16T06:35:36.910Z,100763.94
2019-05-16T06:38:10.006Z,100762.73
2019-05-16T06:40:41.059Z,100766.54
2019-05-16T06:43:13.820Z,100765.34
2019-05-16T06:45:45.027Z,100761.83
2019-05-16T06:48:16.064Z,100756.59
2019-05-16T06:50:47.390Z,100760.91
2019-05-16T06:53:20.709Z,100757.20
2019-05-16T06:55:51.178Z,100758.19
2019-05-16T06:58:22.534Z,100762.77
2019-05-16T07:00:53.719Z,100760.09
2019-05-16T07:03:24.959Z,100759.28
2019-05-16T07:05:56.220Z,100762.37
2019-05-16T07:08:31.055Z,100759.72
2019-05-16T07:11:05.683Z,100764.44
2019-05-16T07:13:37.017Z,100767.88
2019-05-16T07:16:09.743Z,100768.88
2019-05-16T07:18:40.811Z,100772.72
2019-05-16T07:21:12.040Z,100770.34
2019-05-16T07:23:43.194Z,100776.00
2019-05-16T07:26:14.716Z,100771.33
2019-05-16T07:28:45.887Z,100779.56
2019-05-16T07:31:18.958Z,100775.30
2019-05-16T07:33:51.356Z,100772.08
2019-05-16T07:36:22.576Z,100770.38
2019-05-16T07:38:56.625Z,100761.63
2019-05-16T07:41:31.051Z,100771.33
2019-05-16T07:44:02.309Z,100767.47
2019-05-16T07:46:33.786Z,100755.45
2019-05-16T07:49:07.017Z,100757.18
2019-05-16T07:51:40.280Z,100755.01
2019-05-16T07:54:11.161Z,100757.35
2019-05-16T07:56:42.502Z,100751.39
2019-05-16T07:59:13.712Z,100752.56
2019-05-16T08:01:44.958Z,100755.73
2019-05-16T08:04:16.114Z,100755.02
2019-05-16T08:06:47.453Z,100751.98
2019-05-16T08:09:20.925Z,100752.19
2019-05-16T08:11:51.348Z,100746.25
2019-05-16T08:14:22.636Z,100747.55
2019-05-16T08:16:53.836Z,100736.66
2019-05-16T08:19:25.435Z,100735.31
2019-05-16T08:21:56.631Z,100741.36
2019-05-16T08:24:27.656Z,100731.36
2019-05-16T08:27:01.288Z,100728.31
2019-05-16T08:29:31.857Z,100738.19
2019-05-16T08:32:03.441Z,100729.84
2019-05-16T08:34:34.652Z,100736.26
2019-05-16T08:37:05.889Z,100740.95
2019-05-16T08:39:37.038Z,100732.00
2019-05-16T08:42:13.019Z,100730.41
2019-05-16T08:44:43.628Z,100727.50
2019-05-16T08:47:16.974Z,100730.65
2019-05-16T08:49:51.874Z,100721.99
2019-05-16T08:52:22.363Z,100722.20
2019-05-16T08:54:54.125Z,100721.29
2019-05-16T08:57:27.972Z,100721.05
2019-05-16T09:00:01.295Z,100724.84
2019-05-16T09:05:06.403Z,100710.61
2019-05-16T09:07:37.611Z,100704.84
2019-05-16T09:10:25.132Z,100713.80
2019-05-16T09:10:40.565Z,100701.36
2019-05-16T09:12:41.602Z,100707.84
2019-05-16T09:15:12.883Z,100707.10
2019-05-16T09:17:44.107Z,100703.31
2019-05-16T09:20:17.329Z,100700.61
2019-05-16T09:22:48.268Z,100699.36
2019-05-16T09:25:19.404Z,100694.66
2019-05-16T09:27:50.507Z,100700.44
2019-05-16T09:30:21.559Z,100698.37
2019-05-16T09:32:52.684Z,100695.20
2019-05-16T09:35:23.701Z,100695.69
2019-05-16T09:37:54.760Z,100698.55
2019-05-16T09:40:27.811Z,100693.55
2019-05-16T09:42:58.591Z,100688.83
2019-05-16T09:45:30.738Z,100689.77
2019-05-16T09:48:01.935Z,100691.83
2019-05-16T09:50:33.095Z,100684.06
2019-05-16T09:53:04.135Z,100690.17
2019-05-16T09:55:37.361Z,100691.36
2019-05-16T09:58:09.025Z,100684.67
2019-05-16T10:00:40.223Z,100682.40
2019-05-16T10:03:11.347Z,100690.58
2019-05-16T10:05:42.386Z,100683.75
2019-05-16T10:08:13.470Z,100671.59
2019-05-16T10:10:44.981Z,100670.33
2019-05-16T10:13:18.356Z,100667.12
2019-05-16T10:15:48.845Z,100663.52
2019-05-16T10:18:19.937Z,100661.75
2019-05-16T10:20:51.129Z,100673.30
2019-05-16T10:23:22.214Z,100662.95
2019-05-16T10:25:53.214Z,100660.31
2019-05-16T10:28:27.046Z,100654.61
2019-05-16T10:30:57.280Z,100664.52
2019-05-16T10:33:28.394Z,100663.89
2019-05-16T10:35:59.489Z,100659.00
2019-05-16T10:38:30.578Z,100656.13
2019-05-16T10:41:01.597Z,100663.97
2019-05-16T10:43:32.727Z,100647.94
2019-05-16T10:46:06.305Z,100656.75
2019-05-16T10:48:37.603Z,100653.04
2019-05-16T10:51:09.150Z,100651.23
2019-05-16T10:54:02.472Z,100652.48
2019-05-16T10:56:13.298Z,100649.60
2019-05-16T10:59:10.592Z,100649.48
2019-05-16T11:01:27.807Z,100644.69
2019-05-16T11:03:56.796Z,100642.12
2019-05-16T11:06:29.433Z,100644.97
2019-05-16T11:09:01.462Z,100635.50
2019-05-16T11:11:36.600Z,100635.13
2019-05-16T11:14:17.087Z,100637.33
2019-05-16T11:16:48.241Z,100629.64
2019-05-16T11:19:24.242Z,100627.92
2019-05-16T11:21:57.951Z,100631.36
2019-05-16T11:24:30.249Z,100634.06
2019-05-16T11:27:07.610Z,100628.45
2019-05-16T11:29:44.092Z,100627.84
2019-05-16T11:32:15.760Z,100631.00
2019-05-16T11:34:49.974Z,100620.03
2019-05-16T11:37:21.471Z,100622.67
2019-05-16T11:39:53.149Z,100626.12
2019-05-16T11:42:24.534Z,100620.48
2019-05-16T11:44:58.096Z,100618.53
2019-05-16T11:47:30.763Z,100620.50
2019-05-16T11:50:02.674Z,100612.76
2019-05-16T11:52:40.785Z,100607.82
2019-05-16T11:55:11.764Z,100601.94
2019-05-16T11:57:43.467Z,100590.55
2019-05-16T12:00:17.897Z,100597.77
2019-05-16T12:02:51.832Z,100593.48
2019-05-16T12:05:23.428Z,100595.67
2019-05-16T12:07:57.250Z,100591.06
2019-05-16T12:10:28.725Z,100593.68
2019-05-16T12:13:00.181Z,100583.70
2019-05-16T12:15:36.777Z,100578.80
2019-05-16T12:18:08.845Z,100574.16
2019-05-16T12:20:40.360Z,100567.90
2019-05-16T12:23:11.829Z,100571.59
2019-05-16T12:25:43.462Z,100572.57
2019-05-16T12:28:16.879Z,100569.25
2019-05-16T12:30:48.337Z,100566.71
2019-05-16T12:33:19.766Z,100558.43
2019-05-16T12:35:53.236Z,100558.68
2019-05-16T12:38:29.162Z,100563.61
2019-05-16T12:41:02.912Z,100565.36
2019-05-16T12:43:45.991Z,100563.84
2019-05-16T12:46:08.283Z,100554.45
2019-05-16T12:48:39.851Z,100553.44
2019-05-16T12:51:14.151Z,100551.83
2019-05-16T12:53:47.705Z,100553.80
2019-05-16T12:56:20.695Z,100547.04
2019-05-16T12:58:52.537Z,100543.49
2019-05-16T13:01:30.666Z,100550.03
2019-05-16T13:03:57.262Z,100538.70
2019-05-16T13:06:40.705Z,100532.08
2019-05-16T13:09:18.597Z,100532.67
2019-05-16T13:11:57.601Z,100533.52
2019-05-16T13:14:33.050Z,100528.47
2019-05-16T13:17:07.820Z,100532.67
2019-05-16T13:19:44.261Z,100528.67
2019-05-16T13:22:19.713Z,100519.46
2019-05-16T13:24:51.410Z,100519.55
2019-05-16T13:27:23.465Z,100504.19
2019-05-16T13:29:58.129Z,100510.66
2019-05-16T13:32:29.415Z,100510.89
2019-05-16T13:35:00.635Z,100509.16
2019-05-16T13:37:31.603Z,100513.06
2019-05-16T13:40:03.301Z,100495.56
2019-05-16T13:42:36.862Z,100502.77
2019-05-16T13:45:07.488Z,100496.99
2019-05-16T13:47:39.686Z,100496.99
2019-05-16T13:50:12.759Z,100498.63
2019-05-16T13:52:47.797Z,100496.55
2019-05-16T13:55:18.028Z,100498.78
2019-05-16T13:57:49.225Z,100510.88
2019-05-16T14:00:24.448Z,100501.63
2019-05-16T14:02:58.528Z,100503.45
2019-05-16T14:05:29.637Z,100503.97
2019-05-16T14:08:00.819Z,100497.73
2019-05-16T14:10:31.859Z,100493.50
2019-05-16T14:13:03.333Z,100498.39
2019-05-16T14:15:37.123Z,100490.64
2019-05-16T14:18:08.665Z,100494.03
2019-05-16T14:20:41.718Z,100491.27
2019-05-16T14:23:17.866Z,100492.31
2019-05-16T14:25:50.347Z,100494.26
2019-05-16T14:28:22.211Z,100493.44
2019-05-16T14:30:53.718Z,100495.02
2019-05-16T14:33:27.629Z,100494.55
2019-05-16T14:35:58.785Z,100492.17
2019-05-16T14:38:30.152Z,100491.47
2019-05-16T14:41:01.603Z,100494.80
2019-05-16T14:43:36.471Z,100494.94
2019-05-16T14:46:09.758Z,100493.11
2019-05-16T14:48:43.579Z,100489.95
2019-05-16T14:51:18.008Z,100489.67
2019-05-16T14:53:50.378Z,100487.62
2019-05-16T14:56:27.350Z,100491.30
2019-05-16T14:59:03.942Z,100488.60
2019-05-16T15:01:37.717Z,100490.23
2019-05-16T15:04:10.913Z,100483.48
2019-05-16T15:06:42.570Z,100487.31
2019-05-16T15:09:17.217Z,100486.72
2019-05-16T15:11:58.090Z,100485.22
2019-05-16T15:14:28.834Z,100489.17
2019-05-16T15:16:59.924Z,100485.59
2019-05-16T15:19:31.644Z,100484.27
2019-05-16T15:22:02.842Z,100486.72
2019-05-16T15:24:36.907Z,100483.03
2019-05-16T15:27:08.467Z,100487.09
2019-05-16T15:29:40.151Z,100483.75
2019-05-16T15:32:11.185Z,100495.08
2019-05-16T15:34:43.757Z,100487.95
2019-05-16T15:37:17.167Z,100496.06
2019-05-16T15:39:49.468Z,100494.70
2019-05-16T15:42:28.536Z,100496.40
2019-05-16T15:45:12.664Z,100498.33
2019-05-16T15:47:50.275Z,100497.06
2019-05-16T15:50:21.693Z,100498.42
2019-05-16T15:52:52.898Z,100493.57
2019-05-16T15:55:27.030Z,100488.88
2019-05-16T15:57:59.908Z,100493.94
2019-05-16T16:00:48.741Z,100495.91
2019-05-16T16:03:22.140Z,100489.43
2019-05-16T16:05:55.021Z,100491.39
2019-05-16T16:08:28.123Z,100496.60
2019-05-16T16:10:59.068Z,100495.36
2019-05-16T16:13:30.222Z,100493.92
2019-05-16T16:16:02.414Z,100498.34
2019-05-16T16:18:33.511Z,100496.19
2019-05-16T16:21:07.540Z,100496.09
2019-05-16T16:23:38.529Z,100500.06
2019-05-16T16:26:09.728Z,100500.67
2019-05-16T16:28:40.766Z,100500.10
2019-05-16T16:31:11.828Z,100493.70
2019-05-16T16:33:42.909Z,100500.22
2019-05-16T16:36:13.891Z,100502.72
2019-05-16T16:38:47.457Z,100503.97
2019-05-16T16:41:17.778Z,100509.27
2019-05-16T16:43:48.839Z,100514.91
2019-05-16T16:46:19.983Z,100511.13
2019-05-16T16:48:51.151Z,100518.16
2019-05-16T16:51:22.183Z,100519.77
2019-05-16T16:53:53.274Z,100521.36
2019-05-16T16:56:24.326Z,100519.91
2019-05-16T16:58:57.120Z,100521.90
2019-05-16T17:01:28.368Z,100520.08
2019-05-16T17:03:59.437Z,100517.78
2019-05-16T17:06:30.543Z,100513.50
2019-05-16T17:09:01.638Z,100513.77
2019-05-16T17:11:34.354Z,100514.27
2019-05-16T17:14:06.914Z,100513.55
2019-05-16T17:16:38.377Z,100520.16
2019-05-16T17:19:09.291Z,100512.33
2019-05-16T17:21:40.505Z,100520.19
2019-05-16T17:24:11.663Z,100524.97
2019-05-16T17:26:43.009Z,100526.21
2019-05-16T17:29:14.162Z,100520.70
2019-05-16T17:31:53.682Z,100520.84
2019-05-16T17:34:18.035Z,100526.25
2019-05-16T17:36:49.020Z,100529.55
2019-05-16T17:39:20.137Z,100528.09
2019-05-16T17:41:54.958Z,100530.67
2019-05-16T17:44:27.176Z,100529.59
2019-05-16T17:46:58.263Z,100529.85
2019-05-16T17:49:29.411Z,100530.11
2019-05-16T17:52:00.607Z,100535.73
2019-05-16T17:54:31.825Z,100537.34
2019-05-16T17:57:02.854Z,100538.95
2019-05-16T17:59:33.948Z,100548.98
2019-05-16T18:02:06.434Z,100543.84
2019-05-16T18:04:40.617Z,100552.16
2019-05-16T18:07:10.476Z,100548.00
2019-05-16T18:09:43.078Z,100550.57
2019-05-16T18:12:14.339Z,100552.55
2019-05-16T18:14:48.382Z,100550.58
2019-05-16T18:17:17.932Z,100546.29
2019-05-16T18:19:48.988Z,100544.82
2019-05-16T18:22:20.122Z,100550.46
2019-05-16T18:24:51.492Z,100549.71
2019-05-16T18:27:22.666Z,100544.58
2019-05-16T18:29:53.842Z,100548.38
2019-05-16T18:32:26.597Z,100549.97
2019-05-16T18:34:57.820Z,100553.39
2019-05-16T18:37:28.936Z,100547.28
2019-05-16T18:40:00.032Z,100557.30
2019-05-16T18:42:31.151Z,100554.86
2019-05-16T18:45:07.276Z,100553.89
2019-05-16T18:47:38.114Z,100557.30
2019-05-16T18:50:09.258Z,100556.92
2019-05-16T18:52:40.512Z,100552.41
2019-05-16T18:55:11.569Z,100550.31
2019-05-16T18:57:42.747Z,100556.33
2019-05-16T19:00:13.817Z,100558.23
2019-05-16T19:02:47.675Z,100558.72
2019-05-16T19:05:18.085Z,100563.23
2019-05-16T19:07:49.208Z,100558.22
2019-05-16T19:10:20.226Z,100564.70
2019-05-16T19:12:51.303Z,100565.78
2019-05-16T19:15:22.613Z,100571.41
2019-05-16T19:17:53.691Z,100565.40
2019-05-16T19:20:26.344Z,100570.91
2019-05-16T19:22:59.056Z,100566.73
2019-05-16T19:25:30.256Z,100563.44
2019-05-16T19:28:01.302Z,100563.56
2019-05-16T19:30:32.519Z,100562.08
2019-05-16T19:33:03.747Z,100563.64
2019-05-16T19:35:34.765Z,100560.81
2019-05-16T19:38:06.763Z,100565.47
2019-05-16T19:40:40.610Z,100564.48
2019-05-16T19:43:10.671Z,100565.19
2019-05-16T19:45:41.678Z,100568.13
2019-05-16T19:48:12.701Z,100568.33
2019-05-16T19:50:43.707Z,100572.27
2019-05-16T19:53:16.533Z,100559.98
2019-05-16T19:55:47.760Z,100559.34
2019-05-16T19:58:18.764Z,100557.36
2019-05-16T20:00:50.700Z,100557.09
2019-05-16T20:03:21.723Z,100550.61
2019-05-16T20:05:52.816Z,100547.78
2019-05-16T20:08:26.676Z,100548.98
2019-05-16T20:10:56.923Z,100543.00
2019-05-16T20:13:28.063Z,100553.11
2019-05-16T20:15:59.367Z,100552.47
2019-05-16T20:18:30.358Z,100555.39
2019-05-16T20:21:01.537Z,100552.09
2019-05-16T20:23:32.558Z,100556.20
2019-05-16T20:26:03.595Z,100567.81
2019-05-16T20:28:36.917Z,100569.01
2019-05-16T20:31:08.516Z,100569.59
2019-05-16T20:33:39.544Z,100570.20
2019-05-16T20:36:10.613Z,100575.05
2019-05-16T20:38:41.816Z,100572.59
2019-05-16T20:41:13.939Z,100582.58
2019-05-16T20:43:47.339Z,100576.67
2019-05-16T20:46:17.850Z,100585.69
2019-05-16T20:48:49.074Z,100585.92
2019-05-16T20:51:20.434Z,100591.02
2019-05-16T20:53:51.610Z,100593.91
2019-05-16T20:56:22.719Z,100596.36
2019-05-16T20:58:53.755Z,100591.67
2019-05-16T21:01:26.559Z,100600.42
2019-05-16T21:03:57.763Z,100598.08
2019-05-16T21:06:28.864Z,100600.50
2019-05-16T21:08:59.926Z,100602.45
2019-05-16T21:11:30.865Z,100605.33
2019-05-16T21:14:01.939Z,100613.03
2019-05-16T21:16:33.004Z,100613.22
2019-05-16T21:19:04.123Z,100617.48
2019-05-16T21:21:36.787Z,100615.40
2019-05-16T21:24:08.100Z,100619.16
2019-05-16T21:26:41.216Z,100620.22
2019-05-16T21:29:12.419Z,100619.10
2019-05-16T21:31:43.548Z,100623.32
2019-05-16T21:34:16.089Z,100620.86
2019-05-16T21:36:48.837Z,100616.55
2019-05-16T21:39:19.984Z,100611.30
2019-05-16T21:41:51.141Z,100607.00
2019-05-16T21:44:22.292Z,100607.70
2019-05-16T21:46:53.840Z,100608.86
2019-05-16T21:49:27.101Z,100611.16
2019-05-16T21:51:57.801Z,100609.92
2019-05-16T21:54:30.019Z,100609.64
2019-05-16T21:57:01.027Z,100606.23
2019-05-16T21:59:32.333Z,100604.61
2019-05-16T22:02:03.848Z,100593.10
2019-05-16T22:04:36.736Z,100598.58
2019-05-16T22:07:09.640Z,100597.07
2019-05-16T22:09:42.286Z,100593.27
2019-05-16T22:12:13.467Z,100590.20
2019-05-16T22:14:51.299Z,100590.69
2019-05-16T22:17:22.319Z,100583.92
2019-05-16T22:19:53.317Z,100579.90
2019-05-16T22:22:27.469Z,100579.13
2019-05-16T22:24:57.405Z,100579.23
2019-05-16T22:27:28.583Z,100578.00
2019-05-16T22:29:59.695Z,100575.05
2019-05-16T22:32:30.856Z,100576.98
2019-05-16T22:35:02.063Z,100579.97
2019-05-16T22:37:46.074Z,100583.71
2019-05-16T22:40:06.772Z,100581.91
2019-05-16T22:42:38.208Z,100580.39
2019-05-16T22:45:10.908Z,100586.33
2019-05-16T22:47:42.124Z,100582.02
2019-05-16T22:50:17.398Z,100587.88
2019-05-16T22:52:47.755Z,100585.63
2019-05-16T22:55:19.897Z,100589.27
2019-05-16T22:57:52.695Z,100590.22
2019-05-16T23:00:26.535Z,100591.56
2019-05-16T23:02:59.572Z,100585.92
2019-05-16T23:05:30.823Z,100583.55
2019-05-16T23:08:05.941Z,100583.34
2019-05-16T23:10:36.873Z,100579.89
2019-05-16T23:13:07.829Z,100580.00
2019-05-16T23:15:39.083Z,100576.19
2019-05-16T23:18:10.292Z,100566.52
2019-05-16T23:20:41.546Z,100567.69
2019-05-16T23:23:12.807Z,100572.66
2019-05-16T23:25:46.092Z,100568.29
2019-05-16T23:28:16.883Z,100565.97
2019-05-16T23:30:48.271Z,100570.69
2019-05-16T23:33:19.327Z,100566.77
2019-05-16T23:35:50.611Z,100566.49
2019-05-16T23:38:21.735Z,100564.09
2019-05-16T23:40:52.971Z,100566.88
2019-05-16T23:43:24.086Z,100565.85
2019-05-16T23:45:56.374Z,100565.47
2019-05-16T23:48:27.809Z,100566.52
2019-05-16T23:50:58.975Z,100569.91
2019-05-16T23:53:30.129Z,100575.44
2019-05-16T23:56:01.280Z,100576.52
2019-05-16T23:58:32.307Z,100586.00
